sensor_id;sensor_type;location;lat;lon;timestamp;temperature;humidity
68387;DHT22;55338;43.062;25.624;2023-02-11T00:01:31;-7.10;99.90
68387;DHT22;55338;43.062;25.624;2023-02-11T00:03:58;-7.50;99.90
68387;DHT22;55338;43.062;25.624;2023-02-11T00:06:25;-7.50;99.90
68387;DHT22;55338;43.062;25.624;2023-02-11T00:08:52;-7.30;99.90
68387;DHT22;55338;43.062;25.624;2023-02-11T00:11:20;-7.50;99.90
68387;DHT22;55338;43.062;25.624;2023-02-11T00:13:46;-7.20;99.90
68387;DHT22;55338;43.062;25.624;2023-02-11T00:16:15;-7.60;99.90
68387;DHT22;55338;43.062;25.624;2023-02-11T00:18:42;-7.60;99.90
68387;DHT22;55338;43.062;25.624;2023-02-11T00:21:19;-7.70;99.90
68387;DHT22;55338;43.062;25.624;2023-02-11T00:23:46;-7.60;99.90
68387;DHT22;55338;43.062;25.624;2023-02-11T00:26:14;-7.70;99.90
68387;DHT22;55338;43.062;25.624;2023-02-11T00:28:40;-7.70;99.90
68387;DHT22;55338;43.062;25.624;2023-02-11T00:31:05;-7.60;99.90
68387;DHT22;55338;43.062;25.624;2023-02-11T00:33:31;-7.30;99.90
68387;DHT22;55338;43.062;25.624;2023-02-11T00:35:57;-7.70;99.90
68387;DHT22;55338;43.062;25.624;2023-02-11T00:38:23;-7.90;99.90
68387;DHT22;55338;43.062;25.624;2023-02-11T00:40:48;-8.00;99.90
68387;DHT22;55338;43.062;25.624;2023-02-11T00:43:14;-7.70;99.90
68387;DHT22;55338;43.062;25.624;2023-02-11T00:45:40;-7.80;99.90
68387;DHT22;55338;43.062;25.624;2023-02-11T00:48:06;-8.00;99.90
68387;DHT22;55338;43.062;25.624;2023-02-11T00:50:31;-7.90;99.90
68387;DHT22;55338;43.062;25.624;2023-02-11T00:52:57;-8.20;99.90
68387;DHT22;55338;43.062;25.624;2023-02-11T00:55:23;-8.10;99.90
68387;DHT22;55338;43.062;25.624;2023-02-11T00:57:49;-8.10;99.90
68387;DHT22;55338;43.062;25.624;2023-02-11T01:00:15;-8.10;99.90
68387;DHT22;55338;43.062;25.624;2023-02-11T01:02:40;-8.30;99.90
68387;DHT22;55338;43.062;25.624;2023-02-11T01:05:06;-8.40;99.90
68387;DHT22;55338;43.062;25.624;2023-02-11T01:07:32;-8.40;99.90
68387;DHT22;55338;43.062;25.624;2023-02-11T01:09:58;-8.50;99.90
68387;DHT22;55338;43.062;25.624;2023-02-11T01:12:24;-8.50;99.90
68387;DHT22;55338;43.062;25.624;2023-02-11T01:14:50;-8.40;99.90
68387;DHT22;55338;43.062;25.624;2023-02-11T01:17:15;-8.20;99.90
68387;DHT22;55338;43.062;25.624;2023-02-11T01:19:41;-8.30;99.90
68387;DHT22;55338;43.062;25.624;2023-02-11T01:22:07;-8.20;99.90
68387;DHT22;55338;43.062;25.624;2023-02-11T01:24:33;-8.30;99.90
68387;DHT22;55338;43.062;25.624;2023-02-11T01:26:58;-8.10;99.90
68387;DHT22;55338;43.062;25.624;2023-02-11T01:29:24;-8.30;99.90
68387;DHT22;55338;43.062;25.624;2023-02-11T01:31:50;-8.40;99.90
68387;DHT22;55338;43.062;25.624;2023-02-11T01:34:16;-8.50;99.90
68387;DHT22;55338;43.062;25.624;2023-02-11T01:36:42;-8.50;99.90
68387;DHT22;55338;43.062;25.624;2023-02-11T01:39:08;-8.50;99.90
68387;DHT22;55338;43.062;25.624;2023-02-11T01:41:34;-8.50;99.90
68387;DHT22;55338;43.062;25.624;2023-02-11T01:44:24;-8.50;99.90
68387;DHT22;55338;43.062;25.624;2023-02-11T01:46:49;-8.60;99.90
68387;DHT22;55338;43.062;25.624;2023-02-11T01:49:21;-8.30;99.90
68387;DHT22;55338;43.062;25.624;2023-02-11T01:54:40;-8.50;99.90
68387;DHT22;55338;43.062;25.624;2023-02-11T01:57:28;-8.50;99.90
68387;DHT22;55338;43.062;25.624;2023-02-11T02:02:59;-8.60;99.90
68387;DHT22;55338;43.062;25.624;2023-02-11T02:05:46;-8.60;99.90
68387;DHT22;55338;43.062;25.624;2023-02-11T02:08:41;-8.70;99.90
68387;DHT22;55338;43.062;25.624;2023-02-11T02:11:08;-8.50;99.90
68387;DHT22;55338;43.062;25.624;2023-02-11T02:13:35;-8.60;99.90
68387;DHT22;55338;43.062;25.624;2023-02-11T02:16:01;-8.50;99.90
68387;DHT22;55338;43.062;25.624;2023-02-11T02:41:00;-8.80;99.90
68387;DHT22;55338;43.062;25.624;2023-02-11T02:43:28;-8.80;99.90
68387;DHT22;55338;43.062;25.624;2023-02-11T02:45:55;-8.60;99.90
68387;DHT22;55338;43.062;25.624;2023-02-11T02:48:32;-8.60;99.90
68387;DHT22;55338;43.062;25.624;2023-02-11T02:56:53;-9.10;99.90
68387;DHT22;55338;43.062;25.624;2023-02-11T03:02:19;-9.10;99.90
68387;DHT22;55338;43.062;25.624;2023-02-11T03:05:02;-9.00;99.90
68387;DHT22;55338;43.062;25.624;2023-02-11T03:10:33;-9.00;99.90
68387;DHT22;55338;43.062;25.624;2023-02-11T03:13:01;-9.00;99.90
68387;DHT22;55338;43.062;25.624;2023-02-11T03:15:30;-8.90;99.90
68387;DHT22;55338;43.062;25.624;2023-02-11T03:17:59;-8.90;99.90
68387;DHT22;55338;43.062;25.624;2023-02-11T03:20:27;-8.90;99.90
68387;DHT22;55338;43.062;25.624;2023-02-11T03:23:17;-8.90;99.90
68387;DHT22;55338;43.062;25.624;2023-02-11T03:25:49;-8.90;99.90
68387;DHT22;55338;43.062;25.624;2023-02-11T03:28:32;-8.80;99.90
68387;DHT22;55338;43.062;25.624;2023-02-11T03:34:05;-9.20;99.90
68387;DHT22;55338;43.062;25.624;2023-02-11T03:40:17;-9.20;99.90
68387;DHT22;55338;43.062;25.624;2023-02-11T03:42:55;-8.90;99.90
68387;DHT22;55338;43.062;25.624;2023-02-11T03:45:24;-9.00;99.90
68387;DHT22;55338;43.062;25.624;2023-02-11T03:47:59;-8.90;99.90
68387;DHT22;55338;43.062;25.624;2023-02-11T03:50:27;-9.10;99.90
68387;DHT22;55338;43.062;25.624;2023-02-11T03:52:55;-9.20;99.90
68387;DHT22;55338;43.062;25.624;2023-02-11T03:55:22;-9.30;99.90
68387;DHT22;55338;43.062;25.624;2023-02-11T03:57:50;-9.20;99.90
68387;DHT22;55338;43.062;25.624;2023-02-11T04:00:16;-9.40;99.90
68387;DHT22;55338;43.062;25.624;2023-02-11T04:02:43;-9.50;99.90
68387;DHT22;55338;43.062;25.624;2023-02-11T04:05:14;-9.20;99.90
68387;DHT22;55338;43.062;25.624;2023-02-11T04:07:40;-9.40;99.90
68387;DHT22;55338;43.062;25.624;2023-02-11T04:10:06;-9.30;99.90
68387;DHT22;55338;43.062;25.624;2023-02-11T04:12:32;-9.30;99.90
68387;DHT22;55338;43.062;25.624;2023-02-11T04:14:58;-9.30;99.90
68387;DHT22;55338;43.062;25.624;2023-02-11T04:17:24;-9.30;99.90
68387;DHT22;55338;43.062;25.624;2023-02-11T04:19:49;-9.20;99.90
68387;DHT22;55338;43.062;25.624;2023-02-11T04:22:15;-9.20;99.90
68387;DHT22;55338;43.062;25.624;2023-02-11T04:24:41;-9.30;99.90
68387;DHT22;55338;43.062;25.624;2023-02-11T04:27:08;-9.30;99.90
68387;DHT22;55338;43.062;25.624;2023-02-11T04:29:34;-9.30;99.90
68387;DHT22;55338;43.062;25.624;2023-02-11T04:32:00;-9.30;99.90
68387;DHT22;55338;43.062;25.624;2023-02-11T04:34:26;-9.20;99.90
68387;DHT22;55338;43.062;25.624;2023-02-11T04:36:51;-8.80;99.90
68387;DHT22;55338;43.062;25.624;2023-02-11T04:39:17;-9.10;99.90
68387;DHT22;55338;43.062;25.624;2023-02-11T04:41:43;-9.10;99.90
68387;DHT22;55338;43.062;25.624;2023-02-11T04:44:09;-9.10;99.90
68387;DHT22;55338;43.062;25.624;2023-02-11T04:46:35;-9.20;99.90
68387;DHT22;55338;43.062;25.624;2023-02-11T04:49:01;-9.30;99.90
68387;DHT22;55338;43.062;25.624;2023-02-11T04:51:27;-9.30;99.90
68387;DHT22;55338;43.062;25.624;2023-02-11T04:53:52;-9.20;99.90
68387;DHT22;55338;43.062;25.624;2023-02-11T04:56:18;-9.40;99.90
68387;DHT22;55338;43.062;25.624;2023-02-11T04:58:44;-9.20;99.90
68387;DHT22;55338;43.062;25.624;2023-02-11T05:01:12;-9.20;99.90
68387;DHT22;55338;43.062;25.624;2023-02-11T05:03:38;-9.10;99.90
68387;DHT22;55338;43.062;25.624;2023-02-11T05:06:04;-9.30;99.90
68387;DHT22;55338;43.062;25.624;2023-02-11T05:08:30;-9.30;99.90
68387;DHT22;55338;43.062;25.624;2023-02-11T05:10:56;-9.30;99.90
68387;DHT22;55338;43.062;25.624;2023-02-11T05:13:23;-9.40;99.90
68387;DHT22;55338;43.062;25.624;2023-02-11T05:15:48;-9.40;99.90
68387;DHT22;55338;43.062;25.624;2023-02-11T05:18:14;-9.50;99.90
68387;DHT22;55338;43.062;25.624;2023-02-11T05:20:41;-9.50;99.90
68387;DHT22;55338;43.062;25.624;2023-02-11T05:23:07;-9.50;99.90
68387;DHT22;55338;43.062;25.624;2023-02-11T05:25:33;-9.40;99.90
68387;DHT22;55338;43.062;25.624;2023-02-11T05:27:59;-9.40;99.90
68387;DHT22;55338;43.062;25.624;2023-02-11T05:30:25;-9.40;99.90
68387;DHT22;55338;43.062;25.624;2023-02-11T05:32:50;-9.50;99.90
68387;DHT22;55338;43.062;25.624;2023-02-11T05:35:16;-9.50;99.90
68387;DHT22;55338;43.062;25.624;2023-02-11T05:37:42;-9.40;99.90
68387;DHT22;55338;43.062;25.624;2023-02-11T05:40:08;-9.30;99.90
68387;DHT22;55338;43.062;25.624;2023-02-11T05:42:34;-9.40;99.90
68387;DHT22;55338;43.062;25.624;2023-02-11T05:45:00;-9.30;99.90
68387;DHT22;55338;43.062;25.624;2023-02-11T05:47:26;-9.30;99.90
68387;DHT22;55338;43.062;25.624;2023-02-11T05:49:52;-9.30;99.90
68387;DHT22;55338;43.062;25.624;2023-02-11T05:52:21;-9.20;99.90
68387;DHT22;55338;43.062;25.624;2023-02-11T05:54:47;-9.00;99.90
68387;DHT22;55338;43.062;25.624;2023-02-11T05:57:13;-8.90;99.90
68387;DHT22;55338;43.062;25.624;2023-02-11T05:59:39;-9.10;99.90
68387;DHT22;55338;43.062;25.624;2023-02-11T06:02:05;-9.10;99.90
68387;DHT22;55338;43.062;25.624;2023-02-11T06:04:33;-9.10;99.90
68387;DHT22;55338;43.062;25.624;2023-02-11T06:06:59;-9.00;99.90
68387;DHT22;55338;43.062;25.624;2023-02-11T06:09:25;-9.00;99.90
68387;DHT22;55338;43.062;25.624;2023-02-11T06:11:51;-9.00;99.90
68387;DHT22;55338;43.062;25.624;2023-02-11T06:14:17;-8.80;99.90
68387;DHT22;55338;43.062;25.624;2023-02-11T06:16:43;-8.70;99.90
68387;DHT22;55338;43.062;25.624;2023-02-11T06:19:10;-8.60;99.90
68387;DHT22;55338;43.062;25.624;2023-02-11T06:21:36;-8.60;99.90
68387;DHT22;55338;43.062;25.624;2023-02-11T06:24:02;-8.40;99.90
68387;DHT22;55338;43.062;25.624;2023-02-11T06:26:28;-8.20;99.90
68387;DHT22;55338;43.062;25.624;2023-02-11T06:28:54;-8.10;99.90
68387;DHT22;55338;43.062;25.624;2023-02-11T06:31:20;-7.80;99.90
68387;DHT22;55338;43.062;25.624;2023-02-11T06:33:45;-8.00;99.90
68387;DHT22;55338;43.062;25.624;2023-02-11T06:36:14;-7.60;99.90
68387;DHT22;55338;43.062;25.624;2023-02-11T06:38:40;-7.30;99.90
68387;DHT22;55338;43.062;25.624;2023-02-11T06:41:11;-7.30;99.90
68387;DHT22;55338;43.062;25.624;2023-02-11T06:43:38;-7.00;99.90
68387;DHT22;55338;43.062;25.624;2023-02-11T06:46:04;-6.60;98.50
68387;DHT22;55338;43.062;25.624;2023-02-11T06:48:29;-5.90;97.20
68387;DHT22;55338;43.062;25.624;2023-02-11T06:50:55;-5.70;94.40
68387;DHT22;55338;43.062;25.624;2023-02-11T06:53:21;-5.40;92.20
68387;DHT22;55338;43.062;25.624;2023-02-11T06:55:47;-5.00;91.10
68387;DHT22;55338;43.062;25.624;2023-02-11T06:58:13;-4.80;88.90
68387;DHT22;55338;43.062;25.624;2023-02-11T07:00:39;-4.40;88.40
68387;DHT22;55338;43.062;25.624;2023-02-11T07:03:05;-4.10;87.20
68387;DHT22;55338;43.062;25.624;2023-02-11T07:05:31;-3.80;86.50
68387;DHT22;55338;43.062;25.624;2023-02-11T07:07:58;-3.50;84.90
68387;DHT22;55338;43.062;25.624;2023-02-11T07:10:24;-3.20;83.60
68387;DHT22;55338;43.062;25.624;2023-02-11T07:12:50;-2.80;82.90
68387;DHT22;55338;43.062;25.624;2023-02-11T07:15:15;-2.20;80.40
68387;DHT22;55338;43.062;25.624;2023-02-11T07:17:41;-2.00;77.20
68387;DHT22;55338;43.062;25.624;2023-02-11T07:20:07;-1.90;78.30
68387;DHT22;55338;43.062;25.624;2023-02-11T07:22:34;-1.80;77.80
68387;DHT22;55338;43.062;25.624;2023-02-11T07:24:59;-1.40;76.30
68387;DHT22;55338;43.062;25.624;2023-02-11T07:27:25;-1.20;74.10
68387;DHT22;55338;43.062;25.624;2023-02-11T07:29:51;-1.20;73.40
68387;DHT22;55338;43.062;25.624;2023-02-11T07:32:17;-0.90;72.50
68387;DHT22;55338;43.062;25.624;2023-02-11T07:34:42;-0.40;73.10
68387;DHT22;55338;43.062;25.624;2023-02-11T07:37:08;0.00;70.40
68387;DHT22;55338;43.062;25.624;2023-02-11T07:39:35;0.20;70.70
68387;DHT22;55338;43.062;25.624;2023-02-11T07:42:01;0.50;70.00
68387;DHT22;55338;43.062;25.624;2023-02-11T07:44:27;0.70;68.40
68387;DHT22;55338;43.062;25.624;2023-02-11T07:46:53;1.20;67.50
68387;DHT22;55338;43.062;25.624;2023-02-11T07:49:19;1.20;65.70
68387;DHT22;55338;43.062;25.624;2023-02-11T07:51:44;1.50;65.70
68387;DHT22;55338;43.062;25.624;2023-02-11T07:54:11;1.60;66.10
68387;DHT22;55338;43.062;25.624;2023-02-11T07:56:37;1.70;66.10
68387;DHT22;55338;43.062;25.624;2023-02-11T07:59:03;2.10;65.10
68387;DHT22;55338;43.062;25.624;2023-02-11T08:01:29;2.40;63.20
68387;DHT22;55338;43.062;25.624;2023-02-11T08:03:56;2.40;63.50
68387;DHT22;55338;43.062;25.624;2023-02-11T08:06:25;2.90;62.30
68387;DHT22;55338;43.062;25.624;2023-02-11T08:08:52;2.90;62.40
68387;DHT22;55338;43.062;25.624;2023-02-11T08:11:28;3.20;61.50
68387;DHT22;55338;43.062;25.624;2023-02-11T08:13:55;3.20;61.10
68387;DHT22;55338;43.062;25.624;2023-02-11T08:16:27;3.30;60.60
68387;DHT22;55338;43.062;25.624;2023-02-11T08:18:56;3.50;60.30
68387;DHT22;55338;43.062;25.624;2023-02-11T08:21:23;3.80;59.50
68387;DHT22;55338;43.062;25.624;2023-02-11T08:23:49;4.10;58.80
68387;DHT22;55338;43.062;25.624;2023-02-11T08:26:24;4.40;60.20
68387;DHT22;55338;43.062;25.624;2023-02-11T08:28:52;4.70;59.60
68387;DHT22;55338;43.062;25.624;2023-02-11T08:31:20;5.20;57.60
68387;DHT22;55338;43.062;25.624;2023-02-11T08:33:47;5.60;56.20
68387;DHT22;55338;43.062;25.624;2023-02-11T08:36:20;5.90;56.40
68387;DHT22;55338;43.062;25.624;2023-02-11T08:38:46;6.10;56.70
68387;DHT22;55338;43.062;25.624;2023-02-11T08:41:12;6.40;55.40
68387;DHT22;55338;43.062;25.624;2023-02-11T08:43:42;6.40;53.00
68387;DHT22;55338;43.062;25.624;2023-02-11T08:46:11;6.60;52.40
68387;DHT22;55338;43.062;25.624;2023-02-11T08:48:37;6.70;52.40
68387;DHT22;55338;43.062;25.624;2023-02-11T08:51:07;6.20;52.40
68387;DHT22;55338;43.062;25.624;2023-02-11T08:53:33;6.40;53.00
68387;DHT22;55338;43.062;25.624;2023-02-11T08:55:59;6.70;53.00
68387;DHT22;55338;43.062;25.624;2023-02-11T08:58:25;6.90;50.90
68387;DHT22;55338;43.062;25.624;2023-02-11T09:00:51;7.10;51.40
68387;DHT22;55338;43.062;25.624;2023-02-11T09:03:17;7.60;50.70
68387;DHT22;55338;43.062;25.624;2023-02-11T09:05:46;7.90;50.80
68387;DHT22;55338;43.062;25.624;2023-02-11T09:08:12;8.20;49.10
68387;DHT22;55338;43.062;25.624;2023-02-11T09:10:39;8.20;48.40
68387;DHT22;55338;43.062;25.624;2023-02-11T09:13:05;8.40;47.60
68387;DHT22;55338;43.062;25.624;2023-02-11T09:15:31;8.60;47.70
68387;DHT22;55338;43.062;25.624;2023-02-11T09:17:57;8.90;46.90
68387;DHT22;55338;43.062;25.624;2023-02-11T09:20:24;9.30;46.80
68387;DHT22;55338;43.062;25.624;2023-02-11T09:22:50;9.60;45.00
68387;DHT22;55338;43.062;25.624;2023-02-11T09:25:16;9.70;45.30
68387;DHT22;55338;43.062;25.624;2023-02-11T09:27:42;9.80;45.30
68387;DHT22;55338;43.062;25.624;2023-02-11T09:30:08;9.80;44.30
68387;DHT22;55338;43.062;25.624;2023-02-11T09:32:34;9.50;45.00
68387;DHT22;55338;43.062;25.624;2023-02-11T09:35:00;9.60;45.40
68387;DHT22;55338;43.062;25.624;2023-02-11T09:37:26;9.90;44.30
68387;DHT22;55338;43.062;25.624;2023-02-11T09:39:51;10.10;42.90
68387;DHT22;55338;43.062;25.624;2023-02-11T09:42:46;10.00;42.50
68387;DHT22;55338;43.062;25.624;2023-02-11T09:45:21;10.20;43.40
68387;DHT22;55338;43.062;25.624;2023-02-11T09:50:42;10.70;42.50
68387;DHT22;55338;43.062;25.624;2023-02-11T09:53:25;10.70;42.00
68387;DHT22;55338;43.062;25.624;2023-02-11T09:56:02;10.20;43.30
68387;DHT22;55338;43.062;25.624;2023-02-11T09:58:35;9.50;45.30
68387;DHT22;55338;43.062;25.624;2023-02-11T10:10:06;11.30;41.00
68387;DHT22;55338;43.062;25.624;2023-02-11T10:15:33;10.40;40.50
68387;DHT22;55338;43.062;25.624;2023-02-11T10:18:29;10.70;39.90
68387;DHT22;55338;43.062;25.624;2023-02-11T10:23:39;11.70;40.70
68387;DHT22;55338;43.062;25.624;2023-02-11T10:26:12;12.30;37.40
68387;DHT22;55338;43.062;25.624;2023-02-11T10:28:41;12.20;36.80
68387;DHT22;55338;43.062;25.624;2023-02-11T10:33:49;11.30;39.20
68387;DHT22;55338;43.062;25.624;2023-02-11T10:36:18;11.50;38.40
68387;DHT22;55338;43.062;25.624;2023-02-11T10:38:45;11.80;38.70
68387;DHT22;55338;43.062;25.624;2023-02-11T10:41:26;12.30;36.90
68387;DHT22;55338;43.062;25.624;2023-02-11T10:43:53;12.90;36.30
68387;DHT22;55338;43.062;25.624;2023-02-11T10:46:23;13.50;36.90
68387;DHT22;55338;43.062;25.624;2023-02-11T10:48:51;13.60;33.70
68387;DHT22;55338;43.062;25.624;2023-02-11T10:53:47;14.50;33.30
68387;DHT22;55338;43.062;25.624;2023-02-11T10:56:24;14.90;34.40
68387;DHT22;55338;43.062;25.624;2023-02-11T11:01:45;15.30;34.90
68387;DHT22;55338;43.062;25.624;2023-02-11T11:06:55;15.30;29.40
68387;DHT22;55338;43.062;25.624;2023-02-11T11:09:29;15.50;30.20
68387;DHT22;55338;43.062;25.624;2023-02-11T11:11:55;15.70;30.80
68387;DHT22;55338;43.062;25.624;2023-02-11T11:14:24;14.10;30.20
68387;DHT22;55338;43.062;25.624;2023-02-11T11:16:54;13.10;33.10
68387;DHT22;55338;43.062;25.624;2023-02-11T11:19:22;13.80;35.30
68387;DHT22;55338;43.062;25.624;2023-02-11T11:21:53;13.20;32.90
68387;DHT22;55338;43.062;25.624;2023-02-11T11:24:32;13.80;35.10
68387;DHT22;55338;43.062;25.624;2023-02-11T11:27:03;13.80;31.90
68387;DHT22;55338;43.062;25.624;2023-02-11T11:29:44;14.20;33.60
68387;DHT22;55338;43.062;25.624;2023-02-11T11:32:17;13.10;32.30
68387;DHT22;55338;43.062;25.624;2023-02-11T11:34:52;12.80;34.00
68387;DHT22;55338;43.062;25.624;2023-02-11T11:37:28;12.80;33.40
68387;DHT22;55338;43.062;25.624;2023-02-11T11:40:20;12.10;33.70
68387;DHT22;55338;43.062;25.624;2023-02-11T11:45:39;13.50;35.10
68387;DHT22;55338;43.062;25.624;2023-02-11T11:48:37;13.50;32.80
68387;DHT22;55338;43.062;25.624;2023-02-11T11:51:09;14.10;36.80
68387;DHT22;55338;43.062;25.624;2023-02-11T11:53:59;14.90;33.90
68387;DHT22;55338;43.062;25.624;2023-02-11T11:56:27;15.50;34.00
68387;DHT22;55338;43.062;25.624;2023-02-11T11:58:55;16.00;32.50
68387;DHT22;55338;43.062;25.624;2023-02-11T12:07:23;16.80;29.40
68387;DHT22;55338;43.062;25.624;2023-02-11T12:18:56;15.50;28.20
68387;DHT22;55338;43.062;25.624;2023-02-11T12:24:40;15.80;30.50
68387;DHT22;55338;43.062;25.624;2023-02-11T12:35:51;16.10;30.20
68387;DHT22;55338;43.062;25.624;2023-02-11T12:43:43;16.40;26.00
68387;DHT22;55338;43.062;25.624;2023-02-11T12:49:05;15.40;27.10
68387;DHT22;55338;43.062;25.624;2023-02-11T12:54:37;13.00;33.20
68387;DHT22;55338;43.062;25.624;2023-02-11T13:00:02;14.40;33.20
68387;DHT22;55338;43.062;25.624;2023-02-11T13:07:47;14.60;30.00
68387;DHT22;55338;43.062;25.624;2023-02-11T13:12:51;14.50;30.60
68387;DHT22;55338;43.062;25.624;2023-02-11T13:15:38;14.30;30.40
68387;DHT22;55338;43.062;25.624;2023-02-11T13:35:35;15.80;29.90
68387;DHT22;55338;43.062;25.624;2023-02-11T13:38:21;15.90;28.90
68387;DHT22;55338;43.062;25.624;2023-02-11T13:43:27;16.20;27.40
68387;DHT22;55338;43.062;25.624;2023-02-11T13:46:02;16.20;26.20
68387;DHT22;55338;43.062;25.624;2023-02-11T13:48:31;16.50;28.10
68387;DHT22;55338;43.062;25.624;2023-02-11T13:51:06;16.20;28.60
68387;DHT22;55338;43.062;25.624;2023-02-11T13:53:56;16.50;26.70
68387;DHT22;55338;43.062;25.624;2023-02-11T13:58:55;16.80;26.30
68387;DHT22;55338;43.062;25.624;2023-02-11T14:04:31;16.80;25.70
68387;DHT22;55338;43.062;25.624;2023-02-11T14:07:27;16.60;25.60
68387;DHT22;55338;43.062;25.624;2023-02-11T14:13:23;17.30;25.70
68387;DHT22;55338;43.062;25.624;2023-02-11T14:16:22;17.30;25.00
68387;DHT22;55338;43.062;25.624;2023-02-11T14:21:29;16.30;26.90
68387;DHT22;55338;43.062;25.624;2023-02-11T14:26:54;16.00;26.70
68387;DHT22;55338;43.062;25.624;2023-02-11T14:38:46;9.70;41.90
68387;DHT22;55338;43.062;25.624;2023-02-11T14:40:53;8.90;43.40
68387;DHT22;55338;43.062;25.624;2023-02-11T14:43:29;7.80;47.50
68387;DHT22;55338;43.062;25.624;2023-02-11T14:45:57;7.00;49.50
68387;DHT22;55338;43.062;25.624;2023-02-11T14:48:32;6.50;50.80
68387;DHT22;55338;43.062;25.624;2023-02-11T14:51:37;6.00;50.70
68387;DHT22;55338;43.062;25.624;2023-02-11T14:53:57;5.60;51.70
68387;DHT22;55338;43.062;25.624;2023-02-11T14:56:27;5.20;51.00
68387;DHT22;55338;43.062;25.624;2023-02-11T14:58:56;4.90;52.40
68387;DHT22;55338;43.062;25.624;2023-02-11T15:01:32;4.60;54.10
68387;DHT22;55338;43.062;25.624;2023-02-11T15:04:04;4.20;56.70
68387;DHT22;55338;43.062;25.624;2023-02-11T15:06:32;3.90;59.60
68387;DHT22;55338;43.062;25.624;2023-02-11T15:09:12;3.60;61.50
68387;DHT22;55338;43.062;25.624;2023-02-11T15:11:40;3.30;62.20
68387;DHT22;55338;43.062;25.624;2023-02-11T15:14:20;3.00;63.60
68387;DHT22;55338;43.062;25.624;2023-02-11T15:16:47;2.80;64.70
68387;DHT22;55338;43.062;25.624;2023-02-11T15:19:35;2.70;64.90
68387;DHT22;55338;43.062;25.624;2023-02-11T15:22:23;2.70;65.10
68387;DHT22;55338;43.062;25.624;2023-02-11T15:25:10;2.70;65.60
68387;DHT22;55338;43.062;25.624;2023-02-11T15:27:57;2.70;66.20
68387;DHT22;55338;43.062;25.624;2023-02-11T15:30:26;2.50;68.80
68387;DHT22;55338;43.062;25.624;2023-02-11T15:33:03;2.30;69.20
68387;DHT22;55338;43.062;25.624;2023-02-11T15:35:36;2.10;70.40
68387;DHT22;55338;43.062;25.624;2023-02-11T15:38:03;2.10;70.70
68387;DHT22;55338;43.062;25.624;2023-02-11T15:40:35;2.00;71.40
68387;DHT22;55338;43.062;25.624;2023-02-11T15:43:03;1.90;72.70
68387;DHT22;55338;43.062;25.624;2023-02-11T15:46:02;1.80;74.50
68387;DHT22;55338;43.062;25.624;2023-02-11T15:48:40;1.70;76.10
68387;DHT22;55338;43.062;25.624;2023-02-11T15:51:19;1.70;77.40
68387;DHT22;55338;43.062;25.624;2023-02-11T15:53:55;1.60;78.30
68387;DHT22;55338;43.062;25.624;2023-02-11T15:56:24;1.60;80.20
68387;DHT22;55338;43.062;25.624;2023-02-11T15:58:53;1.40;83.20
68387;DHT22;55338;43.062;25.624;2023-02-11T16:01:34;1.20;85.70
68387;DHT22;55338;43.062;25.624;2023-02-11T16:04:02;1.00;89.00
68387;DHT22;55338;43.062;25.624;2023-02-11T16:06:40;1.00;90.00
68387;DHT22;55338;43.062;25.624;2023-02-11T16:11:58;0.80;91.30
68387;DHT22;55338;43.062;25.624;2023-02-11T16:19:21;0.50;93.80
68387;DHT22;55338;43.062;25.624;2023-02-11T16:21:48;0.30;95.70
68387;DHT22;55338;43.062;25.624;2023-02-11T16:24:20;0.20;96.70
68387;DHT22;55338;43.062;25.624;2023-02-11T16:26:49;0.20;98.80
68387;DHT22;55338;43.062;25.624;2023-02-11T16:29:21;0.10;98.80
68387;DHT22;55338;43.062;25.624;2023-02-11T16:31:48;0.10;98.90
68387;DHT22;55338;43.062;25.624;2023-02-11T16:34:16;0.00;99.20
68387;DHT22;55338;43.062;25.624;2023-02-11T16:36:43;0.10;99.40
68387;DHT22;55338;43.062;25.624;2023-02-11T16:39:09;0.00;99.90
68387;DHT22;55338;43.062;25.624;2023-02-11T16:41:35;0.00;99.90
68387;DHT22;55338;43.062;25.624;2023-02-11T16:44:01;-0.20;99.90
68387;DHT22;55338;43.062;25.624;2023-02-11T16:46:27;-0.20;99.90
68387;DHT22;55338;43.062;25.624;2023-02-11T16:48:57;-0.20;99.90
68387;DHT22;55338;43.062;25.624;2023-02-11T16:51:23;-0.30;99.00
68387;DHT22;55338;43.062;25.624;2023-02-11T16:53:49;-0.20;98.30
68387;DHT22;55338;43.062;25.624;2023-02-11T16:56:16;-0.30;99.60
68387;DHT22;55338;43.062;25.624;2023-02-11T16:58:43;-0.30;99.90
68387;DHT22;55338;43.062;25.624;2023-02-11T17:01:10;-0.30;99.90
68387;DHT22;55338;43.062;25.624;2023-02-11T17:03:37;-0.40;99.90
68387;DHT22;55338;43.062;25.624;2023-02-11T17:06:12;-0.50;99.90
68387;DHT22;55338;43.062;25.624;2023-02-11T17:08:38;-0.60;99.90
68387;DHT22;55338;43.062;25.624;2023-02-11T17:11:04;-0.70;99.90
68387;DHT22;55338;43.062;25.624;2023-02-11T17:13:31;-0.70;99.90
68387;DHT22;55338;43.062;25.624;2023-02-11T17:15:57;-0.80;99.90
68387;DHT22;55338;43.062;25.624;2023-02-11T17:18:22;-0.80;99.90
68387;DHT22;55338;43.062;25.624;2023-02-11T17:20:48;-0.90;99.90
68387;DHT22;55338;43.062;25.624;2023-02-11T17:23:14;-1.00;99.90
68387;DHT22;55338;43.062;25.624;2023-02-11T17:25:39;-1.00;99.90
68387;DHT22;55338;43.062;25.624;2023-02-11T17:28:07;-1.00;99.90
68387;DHT22;55338;43.062;25.624;2023-02-11T17:30:33;-1.00;99.90
68387;DHT22;55338;43.062;25.624;2023-02-11T17:33:00;-1.10;99.90
68387;DHT22;55338;43.062;25.624;2023-02-11T17:35:26;-1.10;99.90
68387;DHT22;55338;43.062;25.624;2023-02-11T17:37:52;-1.20;99.90
68387;DHT22;55338;43.062;25.624;2023-02-11T17:40:18;-1.20;99.90
68387;DHT22;55338;43.062;25.624;2023-02-11T17:42:44;-1.20;99.90
68387;DHT22;55338;43.062;25.624;2023-02-11T17:45:10;-1.40;99.90
68387;DHT22;55338;43.062;25.624;2023-02-11T17:47:37;-1.60;99.90
68387;DHT22;55338;43.062;25.624;2023-02-11T17:50:03;-1.60;99.90
68387;DHT22;55338;43.062;25.624;2023-02-11T17:52:29;-1.60;99.90
68387;DHT22;55338;43.062;25.624;2023-02-11T17:54:55;-1.60;99.90
68387;DHT22;55338;43.062;25.624;2023-02-11T17:57:22;-1.50;99.90
68387;DHT22;55338;43.062;25.624;2023-02-11T17:59:48;-1.60;99.90
68387;DHT22;55338;43.062;25.624;2023-02-11T18:02:14;-1.60;99.90
68387;DHT22;55338;43.062;25.624;2023-02-11T18:04:40;-1.50;99.90
68387;DHT22;55338;43.062;25.624;2023-02-11T18:07:06;-1.40;99.90
68387;DHT22;55338;43.062;25.624;2023-02-11T18:09:38;-1.50;99.90
68387;DHT22;55338;43.062;25.624;2023-02-11T18:12:05;-1.60;99.90
68387;DHT22;55338;43.062;25.624;2023-02-11T18:14:31;-1.70;99.90
68387;DHT22;55338;43.062;25.624;2023-02-11T18:16:58;-1.70;99.90
68387;DHT22;55338;43.062;25.624;2023-02-11T18:19:24;-1.60;99.90
68387;DHT22;55338;43.062;25.624;2023-02-11T18:21:50;-1.70;99.90
68387;DHT22;55338;43.062;25.624;2023-02-11T18:24:17;-1.70;99.90
68387;DHT22;55338;43.062;25.624;2023-02-11T18:26:43;-1.70;99.90
68387;DHT22;55338;43.062;25.624;2023-02-11T18:29:08;-1.80;99.90
68387;DHT22;55338;43.062;25.624;2023-02-11T18:31:34;-1.80;99.90